Time;durP1;ratioP1;P1;durP2;ratioP2;P2;SDS_P1;SDS_P2;PMS_P1;PMS_P2;Temp;Humidity;BMP_temperature;BMP_pressure;BME280_temperature;BME280_humidity;BME280_pressure;Samples;Min_cycle;Max_cycle;Signal;HPM_P1;HPM_P2
2022/09/24 00:04:43;;;;;;;1999.90;999.90;;;11.90;99.90;;;;;;6711614;88;20517;-78
2022/09/24 00:14:44;;;;;;;1999.90;999.90;;;11.80;99.90;;;;;;6711475;88;20202;-78
2022/09/24 00:35:03;;;;;;;1999.90;999.90;;;11.90;99.90;;;;;;6712114;88;20217;-78
2022/09/24 00:45:05;;;;;;;1999.90;999.90;;;11.80;99.90;;;;;;6713969;88;20274;-78
2022/09/24 00:55:07;;;;;;;1999.90;999.90;;;11.60;99.90;;;;;;6709867;88;20216;-78
2022/09/24 01:05:09;;;;;;;1999.90;999.90;;;11.60;99.90;;;;;;6702788;88;20393;-78
2022/09/24 01:15:12;;;;;;;1999.90;999.90;;;11.60;99.90;;;;;;6702184;88;20190;-78
2022/09/24 01:25:44;;;;;;;1999.90;999.90;;;11.40;99.90;;;;;;6706478;88;20202;-78
2022/09/24 01:35:55;;;;;;;1999.90;999.90;;;11.50;99.90;;;;;;6696232;88;20208;-78
2022/09/24 01:45:58;;;;;;;1999.90;999.90;;;11.40;99.90;;;;;;6699253;88;20179;-79
2022/09/24 01:56:06;;;;;;;1999.90;999.90;;;11.20;99.90;;;;;;6709448;88;20190;-78
2022/09/24 02:06:18;;;;;;;1999.90;999.90;;;11.30;99.90;;;;;;6709958;88;20303;-78
2022/09/24 02:16:25;;;;;;;1999.90;999.90;;;11.30;99.90;;;;;;6693324;88;20606;-79
2022/09/24 02:26:25;;;;;;;1999.90;999.90;;;11.30;99.90;;;;;;6692086;88;20202;-79
2022/09/24 02:36:27;;;;;;;1999.90;999.90;;;11.10;99.90;;;;;;6701687;88;20227;-78
2022/09/24 02:46:28;;;;;;;1999.90;999.90;;;11.00;99.90;;;;;;6704333;88;20332;-78
2022/09/24 02:56:29;;;;;;;1999.90;999.90;;;11.10;99.90;;;;;;6703867;88;20284;-77
2022/09/24 03:06:30;;;;;;;1999.90;999.90;;;10.90;99.90;;;;;;6707239;88;20297;-77
2022/09/24 03:16:30;;;;;;;1999.90;999.90;;;10.70;99.90;;;;;;6720894;88;20178;-79
2022/09/24 03:26:31;;;;;;;1999.90;999.90;;;10.90;99.90;;;;;;6712446;88;20247;-78
2022/09/24 03:36:31;;;;;;;1999.90;999.90;;;11.00;99.90;;;;;;6706120;88;20252;-78
2022/09/24 03:46:32;;;;;;;1999.90;999.90;;;10.90;99.90;;;;;;6705823;88;20939;-78
2022/09/24 03:56:32;;;;;;;1999.90;999.90;;;10.90;99.90;;;;;;6706667;88;20198;-79
2022/09/24 04:06:34;;;;;;;1999.90;999.90;;;11.00;99.90;;;;;;6718503;88;20223;-79
2022/09/24 04:16:35;;;;;;;1999.90;999.90;;;11.00;99.90;;;;;;6708038;88;20210;-78
2022/09/24 04:26:35;;;;;;;1999.90;999.90;;;11.00;99.90;;;;;;6697337;88;20186;-78
2022/09/24 04:36:36;;;;;;;1999.90;999.90;;;11.10;99.90;;;;;;6712501;88;20623;-78
2022/09/24 04:46:36;;;;;;;1999.90;999.90;;;11.20;99.90;;;;;;6709622;88;20198;-79
2022/09/24 04:56:37;;;;;;;1999.90;999.90;;;11.10;99.90;;;;;;6710513;88;20204;-78
2022/09/24 05:06:38;;;;;;;1999.90;999.90;;;11.00;99.90;;;;;;6712445;88;20197;-78
2022/09/24 05:16:38;;;;;;;1999.90;999.90;;;11.20;99.90;;;;;;6712289;88;20313;-78
2022/09/24 05:36:59;;;;;;;1999.90;999.90;;;11.30;99.90;;;;;;6724265;88;20194;-78
2022/09/24 05:46:59;;;;;;;1999.90;999.90;;;11.40;99.90;;;;;;6723365;88;20203;-78
2022/09/24 05:57:00;;;;;;;1999.90;999.90;;;11.50;99.90;;;;;;6719595;88;20190;-79
2022/09/24 06:07:02;;;;;;;1999.90;999.90;;;11.50;99.90;;;;;;6716277;88;20611;-78
2022/09/24 06:17:02;;;;;;;1999.90;999.90;;;11.80;99.90;;;;;;6714788;88;20675;-79
2022/09/24 06:27:03;;;;;;;1999.90;999.90;;;11.70;99.90;;;;;;6717506;88;20211;-78
2022/09/24 06:37:04;;;;;;;1999.90;999.90;;;11.90;99.90;;;;;;6723183;88;20177;-80
2022/09/24 06:47:04;;;;;;;1999.90;999.90;;;11.90;99.90;;;;;;6714809;88;20203;-79
2022/09/24 06:57:05;;;;;;;1999.90;999.90;;;12.30;99.90;;;;;;6712462;88;20564;-79
2022/09/24 07:07:31;;;;;;;1999.90;999.90;;;12.20;99.90;;;;;;6714221;88;20218;-80
2022/09/24 07:17:32;;;;;;;1999.90;999.90;;;12.30;99.90;;;;;;6701116;88;20227;-80
2022/09/24 07:27:32;;;;;;;1999.90;999.90;;;12.70;99.90;;;;;;6704525;88;20205;-79
2022/09/24 07:37:33;;;;;;;1999.90;999.90;;;12.90;99.90;;;;;;6713910;88;20207;-80
2022/09/24 07:47:33;;;;;;;1999.90;999.90;;;13.10;99.90;;;;;;6724538;88;20198;-79
2022/09/24 07:57:34;;;;;;;1999.90;999.90;;;13.10;99.90;;;;;;6714448;88;20198;-81
2022/09/24 08:07:34;;;;;;;1999.90;999.90;;;13.60;99.90;;;;;;6713344;88;20193;-82
2022/09/24 08:17:35;;;;;;;1999.90;999.90;;;13.70;99.90;;;;;;6725287;88;20224;-83
2022/09/24 08:27:36;;;;;;;1999.90;999.90;;;14.00;99.90;;;;;;6726518;88;20228;-85
2022/09/24 08:37:37;;;;;;;1999.90;999.90;;;14.40;99.90;;;;;;6725682;88;20228;-83
2022/09/24 08:47:44;;;;;;;1999.90;999.90;;;14.80;99.90;;;;;;6725257;88;20225;-83
2022/09/24 08:57:58;;;;;;;1999.90;999.90;;;15.60;99.90;;;;;;6726591;88;20287;-83
2022/09/24 09:08:04;;;;;;;1999.90;999.90;;;16.60;99.90;;;;;;6726328;88;20217;-82
2022/09/24 09:18:17;;;;;;;1999.90;999.90;;;18.90;99.90;;;;;;6713649;88;20214;-82
2022/09/24 09:28:18;;;;;;;1999.90;999.90;;;19.20;99.90;;;;;;6708195;88;20654;-84
2022/09/24 09:38:28;;;;;;;1999.90;999.90;;;18.80;99.90;;;;;;6710912;88;20506;-84
2022/09/24 09:48:42;;;;;;;1999.90;999.90;;;18.70;99.90;;;;;;6710513;88;20333;-83
2022/09/24 09:58:51;;;;;;;1999.90;999.90;;;18.80;99.90;;;;;;6674132;89;20196;-85
2022/09/24 10:08:53;;;;;;;1999.90;999.90;;;19.40;99.90;;;;;;6708465;88;20861;-82
2022/09/24 10:18:53;;;;;;;1999.90;999.90;;;19.40;99.90;;;;;;6705654;89;20209;-83
2022/09/24 10:39:14;;;;;;;1999.90;999.90;;;18.70;99.90;;;;;;6709572;88;20501;-82
2022/09/24 10:49:49;;;;;;;1999.90;999.90;;;18.60;99.90;;;;;;6708573;88;20187;-83
2022/09/24 11:00:13;;;;;;;1999.90;999.90;;;18.90;99.90;;;;;;6708992;88;20170;-81
2022/09/24 11:10:20;;;;;;;1999.90;999.90;;;19.00;99.90;;;;;;6718552;88;20151;-82
2022/09/24 11:20:25;;;;;;;1999.90;999.90;;;19.00;99.90;;;;;;6718256;88;20831;-82
2022/09/24 11:30:48;;;;;;;1999.90;999.90;;;18.90;99.90;;;;;;6718178;88;20237;-83
2022/09/24 11:41:20;;;;;;;1999.90;999.90;;;18.70;99.90;;;;;;6717701;88;20878;-82
2022/09/24 11:51:39;;;;;;;1999.90;999.90;;;18.50;99.90;;;;;;6717620;88;20168;-81
2022/09/24 12:01:48;;;;;;;1999.90;999.90;;;18.70;99.90;;;;;;6698108;89;20283;-82
2022/09/24 12:12:06;;;;;;;1999.90;999.90;;;18.50;99.90;;;;;;6681331;89;20232;-82
2022/09/24 12:22:09;;;;;;;1999.90;999.90;;;18.20;99.90;;;;;;6681514;89;20899;-82
2022/09/24 12:42:53;;;;;;;1999.90;999.90;;;18.10;99.90;;;;;;6714804;88;20190;-81
2022/09/24 12:52:54;;;;;;;;;;;18.40;99.90;;;;;;6680979;89;20185;-82
2022/09/24 13:02:54;;;;;;;1999.90;999.90;;;18.60;99.90;;;;;;6680748;89;20083;-82
2022/09/24 13:12:58;;;;;;;1999.90;999.90;;;18.30;99.90;;;;;;6680614;89;20243;-81
2022/09/24 13:23:18;;;;;;;1999.90;999.90;;;18.00;99.90;;;;;;6709252;88;20194;-81
2022/09/24 13:33:28;;;;;;;1999.90;999.90;;;17.70;99.90;;;;;;6714714;88;20215;-84
2022/09/24 13:43:46;;;;;;;1999.90;999.90;;;17.60;99.90;;;;;;6709186;88;20247;-83
2022/09/24 13:54:16;;;;;;;1999.90;999.90;;;17.40;99.90;;;;;;6707808;88;20147;-84
2022/09/24 14:04:20;;;;;;;1999.90;999.90;;;17.30;99.90;;;;;;6711356;88;20167;-84
2022/09/24 14:14:26;;;;;;;1999.90;999.90;;;17.10;99.90;;;;;;6710322;88;20301;-84
2022/09/24 14:24:34;;;;;;;1999.90;999.90;;;16.80;99.90;;;;;;6713160;88;20205;-85
2022/09/24 14:34:39;;;;;;;1999.90;999.90;;;16.30;99.90;;;;;;6713013;88;20208;-84
2022/09/24 14:44:44;;;;;;;1999.90;999.90;;;15.90;99.90;;;;;;6714875;88;20151;-84
2022/09/24 14:54:45;;;;;;;1999.90;999.90;;;15.70;99.90;;;;;;6710964;88;20197;-82
2022/09/24 15:04:52;;;;;;;1999.90;999.90;;;15.40;99.90;;;;;;6707091;88;20198;-82
2022/09/24 15:15:02;;;;;;;1999.90;999.90;;;15.50;99.90;;;;;;6703363;89;20168;-83
2022/09/24 15:25:03;;;;;;;1999.90;999.90;;;15.30;99.90;;;;;;6699281;89;20183;-81
2022/09/24 15:35:08;;;;;;;1999.90;999.90;;;15.30;99.90;;;;;;6699448;88;20226;-81
2022/09/24 15:45:21;;;;;;;1999.90;999.90;;;15.20;99.90;;;;;;6704309;88;20394;-82
2022/09/24 15:55:22;;;;;;;1999.90;999.90;;;15.10;99.90;;;;;;6700794;88;20275;-80
2022/09/24 16:05:24;;;;;;;1999.90;999.90;;;15.00;99.90;;;;;;6697859;88;20777;-80
2022/09/24 16:15:25;;;;;;;1999.90;999.90;;;15.10;99.90;;;;;;6698465;88;20208;-80
2022/09/24 16:25:26;;;;;;;1999.90;999.90;;;15.00;99.90;;;;;;6698142;88;20646;-80
2022/09/24 16:35:27;;;;;;;1999.90;999.90;;;14.90;99.90;;;;;;6678201;77;20236;-75
2022/09/24 16:45:29;;;;;;;1999.90;999.90;;;14.80;99.90;;;;;;6666734;88;20171;-74
2022/09/24 16:55:30;;;;;;;1999.90;999.90;;;14.80;99.90;;;;;;6671916;87;20236;-74
2022/09/24 17:05:33;;;;;;;1999.90;999.90;;;14.70;99.90;;;;;;6671205;89;20266;-75
2022/09/24 17:15:33;;;;;;;1999.90;999.90;;;14.70;99.90;;;;;;6674757;89;20200;-74
2022/09/24 17:25:34;;;;;;;1999.90;999.90;;;14.60;99.90;;;;;;6684561;87;20191;-77
2022/09/24 17:35:34;;;;;;;1999.90;999.90;;;14.50;99.90;;;;;;6672554;88;20613;-76
2022/09/24 17:45:35;;;;;;;1999.90;999.90;;;14.50;99.90;;;;;;6668894;88;20199;-76
2022/09/24 17:55:36;;;;;;;1999.90;999.90;;;14.50;99.90;;;;;;6671620;88;20211;-78
2022/09/24 18:05:36;;;;;;;1999.90;999.90;;;14.40;99.90;;;;;;6676449;87;20603;-78
2022/09/24 18:15:37;;;;;;;1999.90;999.90;;;14.40;99.90;;;;;;6677569;89;20207;-77
2022/09/24 18:25:37;;;;;;;1999.90;999.90;;;14.40;99.90;;;;;;6665701;89;20196;-77
2022/09/24 18:35:38;;;;;;;1999.90;999.90;;;14.30;99.90;;;;;;6667182;89;20180;-76
2022/09/24 18:45:38;;;;;;;1999.90;999.90;;;14.20;99.90;;;;;;6672950;88;20246;-75
2022/09/24 18:55:40;;;;;;;1999.90;999.90;;;14.10;99.90;;;;;;6668411;89;20258;-77
2022/09/24 19:05:41;;;;;;;1999.90;999.90;;;14.00;99.90;;;;;;6669916;88;20206;-76
2022/09/24 19:15:42;;;;;;;1999.90;999.90;;;13.90;99.90;;;;;;6674226;88;20221;-78
2022/09/24 19:25:43;;;;;;;1999.90;999.90;;;13.90;99.90;;;;;;6676599;88;20215;-78
2022/09/24 19:35:56;;;;;;;1999.90;999.90;;;13.60;99.90;;;;;;6668455;89;20200;-77
2022/09/24 19:45:59;;;;;;;1999.90;999.90;;;13.50;99.90;;;;;;6664836;89;20183;-77
2022/09/24 19:55:59;;;;;;;1999.90;999.90;;;13.60;99.90;;;;;;6669305;89;20799;-77
2022/09/24 20:06:07;;;;;;;1999.90;999.90;;;13.30;99.90;;;;;;6673193;89;20238;-77
2022/09/24 20:16:08;;;;;;;1999.90;999.90;;;13.40;99.90;;;;;;6671058;88;20267;-78
2022/09/24 20:36:30;;;;;;;1999.90;999.90;;;13.30;99.90;;;;;;6673091;88;20188;-77
2022/09/24 20:46:30;;;;;;;1999.90;999.90;;;13.20;99.90;;;;;;6677749;87;20357;-77
2022/09/24 20:56:31;;;;;;;1999.90;999.90;;;13.50;99.90;;;;;;6673841;88;20204;-76
2022/09/24 21:06:31;;;;;;;1999.90;999.90;;;13.20;99.90;;;;;;6673181;87;20341;-75
2022/09/24 21:16:33;;;;;;;1999.90;999.90;;;12.90;99.90;;;;;;6663442;87;20805;-76
2022/09/24 21:26:36;;;;;;;1999.90;999.90;;;12.90;99.90;;;;;;6666394;88;20180;-75
2022/09/24 21:36:38;;;;;;;1999.90;999.90;;;12.90;99.90;;;;;;6665058;87;20255;-75
2022/09/24 21:46:41;;;;;;;1999.90;999.90;;;12.90;99.90;;;;;;6666127;89;20663;-75
2022/09/24 21:56:42;;;;;;;1999.90;999.90;;;12.90;99.90;;;;;;6679714;87;20203;-75
2022/09/24 22:06:43;;;;;;;1999.90;999.90;;;13.00;99.90;;;;;;6667866;87;20216;-75
2022/09/24 22:16:44;;;;;;;1999.90;999.90;;;13.00;99.90;;;;;;6666389;87;20226;-76
2022/09/24 22:26:44;;;;;;;1999.90;999.90;;;13.00;99.90;;;;;;6671867;87;20220;-75
2022/09/24 22:36:46;;;;;;;1999.90;999.90;;;13.10;99.90;;;;;;6661448;77;20200;-78
2022/09/24 22:46:47;;;;;;;1999.90;999.90;;;13.00;99.90;;;;;;6643674;88;20211;-79
2022/09/24 22:56:47;;;;;;;1999.90;999.90;;;12.90;99.90;;;;;;6644160;88;20203;-77
2022/09/24 23:06:48;;;;;;;1999.90;999.90;;;13.00;99.90;;;;;;6644945;88;20210;-77
2022/09/24 23:16:48;;;;;;;1999.90;999.90;;;13.00;99.90;;;;;;6645503;88;20322;-78
2022/09/24 23:26:50;;;;;;;1999.90;999.90;;;13.10;99.90;;;;;;6646067;88;20208;-77
2022/09/24 23:36:50;;;;;;;1999.90;999.90;;;13.30;99.90;;;;;;6656934;88;20222;-77
2022/09/24 23:46:51;;;;;;;1999.90;999.90;;;13.30;99.90;;;;;;6643419;88;20180;-77
2022/09/24 23:56:51;;;;;;;1999.90;999.90;;;13.40;99.90;;;;;;6647244;88;20218;-78
